Strona główna
METAR-TAF:

METAR-TAF

Lotnisko :

Port lotniczy Luksemburg

Luksemburg, Luksemburg

Szerokość geograficzna: 49-37N, Długość geograficzna: 006-13E, wysokość: 376 m

Aktualna obserwacja pogody

Raport powstał 29 minut temu, godzina 03:20 UTC
Wiatr 8 kt od północny zachód
Temperatura 6°C
Wilgotność 93%
Ciśnienie 1029 hPa
Widzialność 10 km lub więcej
Mało chmury na wysokości 1000 ft

METAR: ELLX 240320Z 32008KT 9999 FEW010 06/05 Q1029 NOSIG

czas: 05:49 (03:49 UTC)

Prognoza

Raport powstał 4 godziny i 49 minut temu, godzina 23:00 UTC
Prognoza ważna od 24 godzina 00 UTC do 25 godzina 06 UTC
Wiatr 8 kt od zachodnio-północny zachód
Widzialność 10 km lub więcej
Rozproszone chmury na wysokości 2500 ft
Prawdopodobieństwo 30% :
Przejściowo
od 24 godzina 02 UTC do 24 godzina 07 UTC
Widzialność: 4000 m
zamglenie

TAF: ELLX 232300Z 2400/2506 30008KT 9999 SCT025 PROB30 TEMPO 2402/2407 4000 BR

Obserwacja i prognoza pogody dla ponad 4000 lotnisk (raport METAR i TAF).

Dostępne stacje oznaczono żółtymi i czerwonymi punktami na mapie.

Najedź kursorem aby zobaczyć nazwę stacji.

Kliknij aby zobaczyć obserwacje i prognozy pogody.

Aby zmienić mapę: kliknij na zielony przycisk z czarnym krzyżykiem, aby powiększyć; na zielony przycisk z myślnikiem, aby pomniejszyć; na zielone strzałki, aby przejść do map sąsiednich.


METAR-TAF: